createdAt,value
2023-01-22T00:00:36.161Z,0.77
2023-01-22T00:03:02.687Z,0.78
2023-01-22T00:05:29.203Z,0.78
2023-01-22T00:07:56.006Z,0.76
2023-01-22T00:10:22.562Z,0.77
2023-01-22T00:12:49.096Z,0.26
2023-01-22T00:15:15.851Z,0.70
2023-01-22T00:17:44.790Z,0.76
2023-01-22T00:20:12.633Z,0.60
2023-01-22T00:22:39.130Z,0.74
2023-01-22T00:25:06.857Z,0.75
2023-01-22T00:27:33.352Z,0.75
2023-01-22T00:29:59.880Z,0.74
2023-01-22T00:32:26.401Z,0.75
2023-01-22T00:34:54.937Z,0.75
2023-01-22T00:37:21.508Z,0.76
2023-01-22T00:39:48.035Z,0.75
2023-01-22T00:42:14.513Z,0.76
2023-01-22T00:44:41.035Z,0.75
2023-01-22T00:47:07.589Z,0.75
2023-01-22T00:49:34.088Z,0.74
2023-01-22T00:52:01.941Z,0.75
2023-01-22T00:54:29.804Z,0.78
2023-01-22T00:56:56.459Z,0.76
2023-01-22T00:59:23.014Z,0.75
2023-01-22T01:01:49.541Z,0.74
2023-01-22T01:04:16.038Z,0.76
2023-01-22T01:06:42.558Z,0.74
2023-01-22T01:09:10.472Z,0.76
2023-01-22T01:11:37.084Z,0.74
2023-01-22T01:14:04.293Z,0.75
2023-01-22T01:16:31.919Z,0.75
2023-01-22T01:18:59.322Z,0.75
2023-01-22T01:21:25.982Z,0.74
2023-01-22T01:23:54.127Z,0.74
2023-01-22T01:26:22.354Z,0.75
2023-01-22T01:28:49.903Z,0.76
2023-01-22T01:31:17.146Z,0.76
2023-01-22T01:33:44.188Z,0.74
2023-01-22T01:36:13.345Z,0.74
2023-01-22T01:38:39.910Z,0.73
2023-01-22T01:41:07.038Z,0.75
2023-01-22T01:43:34.961Z,0.74
2023-01-22T01:46:04.295Z,0.74
2023-01-22T01:48:35.435Z,0.74
2023-01-22T01:51:07.493Z,0.73
2023-01-22T01:53:34.815Z,0.74
2023-01-22T01:56:03.394Z,0.75
2023-01-22T01:58:34.163Z,0.73
2023-01-22T02:01:08.675Z,0.73
2023-01-22T02:03:35.349Z,0.75
2023-01-22T02:06:01.902Z,0.75
2023-01-22T02:08:28.619Z,0.77
2023-01-22T02:10:55.337Z,0.81
2023-01-22T02:13:25.389Z,0.79
2023-01-22T02:15:51.896Z,0.78
2023-01-22T02:18:19.746Z,0.79
2023-01-22T02:20:55.354Z,0.76
2023-01-22T02:23:22.110Z,0.76
2023-01-22T02:25:49.257Z,0.76
2023-01-22T02:28:15.794Z,0.75
2023-01-22T02:30:42.650Z,0.74
2023-01-22T02:33:09.887Z,0.78
2023-01-22T02:35:36.501Z,0.79
2023-01-22T02:38:04.396Z,0.77
2023-01-22T02:40:30.927Z,0.78
2023-01-22T02:42:57.697Z,0.78
2023-01-22T02:45:24.609Z,0.78
2023-01-22T02:47:51.223Z,0.77
2023-01-22T02:50:18.284Z,0.73
2023-01-22T02:52:45.001Z,0.73
2023-01-22T02:55:12.861Z,0.72
2023-01-22T02:57:39.370Z,0.73
2023-01-22T03:00:07.734Z,0.72
2023-01-22T03:02:34.249Z,0.75
2023-01-22T03:05:04.784Z,0.72
2023-01-22T03:07:47.545Z,0.72
2023-01-22T03:10:17.581Z,0.73
2023-01-22T03:13:04.455Z,0.72
2023-01-22T03:15:49.907Z,0.74
2023-01-22T03:18:35.166Z,0.73
2023-01-22T03:21:15.499Z,0.74
2023-01-22T03:23:42.336Z,0.72
2023-01-22T03:26:10.387Z,0.72
2023-01-22T03:28:37.266Z,0.73
2023-01-22T03:31:04.275Z,0.72
2023-01-22T03:33:30.946Z,0.71
2023-01-22T03:36:00.160Z,0.70
2023-01-22T03:38:26.839Z,0.71
2023-01-22T03:40:53.492Z,0.71
2023-01-22T03:43:21.388Z,0.70
2023-01-22T03:45:47.950Z,0.71
2023-01-22T03:48:14.523Z,0.69
2023-01-22T03:50:41.070Z,0.70
2023-01-22T03:53:07.712Z,0.70
2023-01-22T03:55:34.256Z,0.70
2023-01-22T03:58:00.830Z,0.69
2023-01-22T04:00:29.299Z,0.71
2023-01-22T04:02:55.878Z,0.70
2023-01-22T04:05:22.844Z,0.69
2023-01-22T04:07:50.562Z,0.70
2023-01-22T04:10:18.166Z,0.69
2023-01-22T04:12:44.934Z,0.69
2023-01-22T04:15:11.860Z,0.70
2023-01-22T04:17:39.776Z,0.70
2023-01-22T04:20:07.181Z,0.73
2023-01-22T04:22:33.775Z,0.74
2023-01-22T04:25:00.315Z,0.71
2023-01-22T04:27:26.850Z,0.70
2023-01-22T04:29:53.463Z,0.69
2023-01-22T04:32:19.999Z,0.71
2023-01-22T04:34:47.973Z,0.71
2023-01-22T04:37:14.512Z,0.72
2023-01-22T04:39:41.144Z,0.70
2023-01-22T04:42:10.484Z,0.68
2023-01-22T04:44:37.042Z,0.69
2023-01-22T04:47:03.588Z,0.68
2023-01-22T04:49:30.126Z,0.68
2023-01-22T04:51:58.125Z,0.68
2023-01-22T04:54:24.775Z,0.67
2023-01-22T04:56:52.695Z,0.67
2023-01-22T04:59:19.277Z,0.67
2023-01-22T05:01:45.853Z,0.68
2023-01-22T05:04:12.500Z,0.68
2023-01-22T05:06:39.003Z,0.66
2023-01-22T05:09:06.876Z,0.65
2023-01-22T05:11:33.396Z,0.66
2023-01-22T05:14:00.024Z,0.67
2023-01-22T05:16:26.683Z,0.65
2023-01-22T05:18:53.185Z,0.66
2023-01-22T05:21:19.703Z,0.66
2023-01-22T05:23:46.183Z,0.67
2023-01-22T05:26:14.060Z,0.66
2023-01-22T05:28:40.574Z,0.65
2023-01-22T05:31:07.491Z,0.64
2023-01-22T05:33:34.283Z,0.64
2023-01-22T05:36:03.007Z,0.64
2023-01-22T05:38:30.329Z,0.65
2023-01-22T05:40:57.106Z,0.68
2023-01-22T05:43:25.140Z,0.63
2023-01-22T05:45:51.735Z,0.63
2023-01-22T05:48:18.264Z,0.64
2023-01-22T05:50:44.775Z,0.64
2023-01-22T05:53:11.318Z,0.63
2023-01-22T05:55:37.850Z,0.63
2023-01-22T05:58:06.241Z,0.64
2023-01-22T06:00:34.643Z,0.63
2023-01-22T06:03:01.353Z,0.63
2023-01-22T06:05:27.895Z,0.64
2023-01-22T06:07:54.481Z,0.37
2023-01-22T06:10:21.098Z,0.60
2023-01-22T06:12:47.637Z,0.64
2023-01-22T06:15:14.230Z,0.60
2023-01-22T06:17:42.123Z,0.60
2023-01-22T06:20:10.476Z,0.60
2023-01-22T06:22:37.036Z,0.62
2023-01-22T06:25:04.023Z,0.61
2023-01-22T06:27:30.572Z,0.63
2023-01-22T06:29:57.127Z,0.62
2023-01-22T06:32:23.730Z,0.59
2023-01-22T06:34:51.741Z,0.59
2023-01-22T06:37:18.382Z,0.59
2023-01-22T06:39:44.912Z,0.59
2023-01-22T06:42:11.458Z,0.59
2023-01-22T06:44:38.021Z,0.58
2023-01-22T06:47:04.777Z,0.59
2023-01-22T06:49:31.326Z,0.60
2023-01-22T06:51:59.242Z,0.59
2023-01-22T06:54:25.773Z,0.57
2023-01-22T06:56:52.354Z,0.57
2023-01-22T06:59:18.885Z,0.56
2023-01-22T07:01:45.556Z,0.57
2023-01-22T07:04:12.185Z,0.58
2023-01-22T07:06:38.723Z,0.60
2023-01-22T07:09:06.637Z,-0.04
2023-01-22T07:11:33.197Z,0.47
2023-01-22T07:13:59.735Z,0.52
2023-01-22T07:16:26.367Z,0.53
2023-01-22T07:18:52.960Z,0.53
2023-01-22T07:21:19.505Z,0.53
2023-01-22T07:23:46.039Z,0.54
2023-01-22T07:26:15.031Z,0.55
2023-01-22T07:28:41.609Z,0.57
2023-01-22T07:31:10.130Z,0.46
2023-01-22T07:33:36.730Z,0.50
2023-01-22T07:36:03.732Z,0.51
2023-01-22T07:38:30.330Z,0.50
2023-01-22T07:41:00.933Z,0.50
2023-01-22T07:43:29.161Z,0.50
2023-01-22T07:45:57.881Z,0.50
2023-01-22T07:48:24.667Z,0.50
2023-01-22T07:50:51.273Z,0.51
2023-01-22T07:53:18.287Z,0.51
2023-01-22T07:55:44.844Z,0.49
2023-01-22T07:58:11.853Z,0.51
2023-01-22T08:00:39.771Z,0.49
2023-01-22T08:03:10.307Z,0.49
2023-01-22T08:05:38.977Z,0.50
2023-01-22T08:08:06.042Z,0.49
2023-01-22T08:10:32.732Z,0.49
2023-01-22T08:12:59.304Z,0.48
2023-01-22T08:15:25.892Z,0.50
2023-01-22T08:17:53.774Z,0.50
2023-01-22T08:20:21.331Z,0.50
2023-01-22T08:22:48.023Z,0.50
2023-01-22T08:25:14.898Z,0.51
2023-01-22T08:27:41.545Z,0.53
2023-01-22T08:30:11.389Z,0.53
2023-01-22T08:32:39.456Z,0.52
2023-01-22T08:35:08.556Z,0.50
2023-01-22T08:37:35.124Z,0.50
2023-01-22T08:40:01.694Z,0.52
2023-01-22T08:42:28.284Z,0.52
2023-01-22T08:44:54.827Z,0.50
2023-01-22T08:47:21.435Z,0.50
2023-01-22T08:49:47.994Z,0.55
2023-01-22T08:52:16.113Z,0.56
2023-01-22T08:54:42.736Z,0.61
2023-01-22T08:57:09.394Z,0.08
2023-01-22T08:59:36.099Z,0.45
2023-01-22T09:02:02.704Z,0.52
2023-01-22T09:04:29.275Z,0.53
2023-01-22T09:06:55.915Z,0.53
2023-01-22T09:09:23.832Z,0.58
2023-01-22T09:11:50.423Z,0.63
2023-01-22T09:14:16.954Z,0.64
2023-01-22T09:16:43.542Z,0.72
2023-01-22T09:19:10.949Z,0.75
2023-01-22T09:21:37.672Z,0.71
2023-01-22T09:24:04.610Z,0.75
2023-01-22T09:26:32.847Z,0.66
2023-01-22T09:29:00.728Z,0.67
2023-01-22T09:31:27.425Z,0.76
2023-01-22T09:33:55.547Z,1.17
2023-01-22T09:36:22.204Z,1.51
2023-01-22T09:38:48.705Z,2.49
2023-01-22T09:41:21.264Z,1.63
2023-01-22T09:43:52.257Z,1.05
2023-01-22T09:46:25.235Z,0.89
2023-01-22T09:48:56.800Z,2.40
2023-01-22T09:51:23.638Z,1.85
2023-01-22T09:53:56.151Z,1.18
2023-01-22T09:56:28.449Z,1.16
2023-01-22T09:58:59.860Z,1.05
2023-01-22T10:01:27.354Z,0.95
2023-01-22T10:03:58.979Z,2.93
2023-01-22T10:06:25.786Z,1.17
2023-01-22T10:09:00.398Z,1.17
2023-01-22T10:11:26.949Z,1.14
2023-01-22T10:13:57.951Z,0.59
2023-01-22T10:16:24.943Z,0.57
2023-01-22T10:18:56.920Z,0.99
2023-01-22T10:21:26.614Z,0.80
2023-01-22T10:23:56.117Z,0.35
2023-01-22T10:26:32.951Z,0.63
2023-01-22T10:29:06.541Z,0.65
2023-01-22T10:31:34.748Z,0.59
2023-01-22T10:34:03.098Z,0.63
2023-01-22T10:36:31.382Z,0.73
2023-01-22T10:39:06.141Z,0.63
2023-01-22T10:41:33.024Z,0.50
2023-01-22T10:44:10.521Z,0.42
2023-01-22T10:46:37.108Z,0.55
2023-01-22T10:49:06.366Z,0.64
2023-01-22T10:51:37.227Z,0.54
2023-01-22T10:54:05.983Z,0.49
2023-01-22T10:56:34.502Z,0.45
2023-01-22T10:59:04.952Z,0.35
2023-01-22T11:01:36.143Z,0.56
2023-01-22T11:04:12.253Z,0.44
2023-01-22T11:06:43.310Z,0.73
2023-01-22T11:09:19.907Z,0.56
2023-01-22T11:11:52.790Z,0.36
2023-01-22T11:14:23.545Z,0.37
2023-01-22T11:16:52.568Z,0.54
2023-01-22T11:19:36.243Z,0.76
2023-01-22T11:22:11.813Z,0.80
2023-01-22T11:24:42.775Z,0.86
2023-01-22T11:27:24.303Z,0.69
2023-01-22T11:30:04.360Z,0.44
2023-01-22T11:32:45.727Z,0.36
2023-01-22T11:35:18.947Z,0.36
2023-01-22T11:37:59.950Z,0.36
2023-01-22T11:40:29.197Z,0.34
2023-01-22T11:43:09.182Z,0.39
2023-01-22T11:46:07.310Z,0.48
2023-01-22T11:48:52.695Z,0.60
2023-01-22T11:51:30.892Z,0.56
2023-01-22T11:54:22.503Z,0.75
2023-01-22T11:57:03.230Z,0.70
2023-01-22T11:59:41.625Z,0.60
2023-01-22T12:02:27.673Z,0.82
2023-01-22T12:05:17.072Z,0.95
2023-01-22T12:08:16.744Z,0.84
2023-01-22T12:11:11.085Z,1.02
2023-01-22T12:13:55.431Z,1.06
2023-01-22T12:16:27.955Z,1.01
2023-01-22T12:19:23.633Z,0.95
2023-01-22T12:21:59.961Z,0.84
2023-01-22T12:24:33.337Z,0.67
2023-01-22T12:27:03.385Z,1.11
2023-01-22T12:29:36.751Z,1.39
2023-01-22T12:32:09.173Z,1.41
2023-01-22T12:34:41.918Z,0.81
2023-01-22T12:37:13.989Z,0.92
2023-01-22T12:39:49.673Z,0.77
2023-01-22T12:42:25.992Z,0.54
2023-01-22T12:44:59.660Z,0.54
2023-01-22T12:47:32.167Z,0.70
2023-01-22T12:49:58.670Z,0.65
2023-01-22T12:52:35.824Z,0.64
2023-01-22T12:55:20.853Z,0.60
2023-01-22T12:57:47.507Z,0.59
2023-01-22T13:00:24.999Z,0.68
2023-01-22T13:02:51.729Z,0.57
2023-01-22T13:05:35.716Z,0.58
2023-01-22T13:08:06.104Z,0.80
2023-01-22T13:10:35.448Z,0.49
2023-01-22T13:13:04.246Z,-0.23
2023-01-22T13:15:34.069Z,-0.46
2023-01-22T13:18:07.869Z,-0.18
2023-01-22T13:20:37.585Z,-0.40
2023-01-22T13:23:07.526Z,-0.55
2023-01-22T13:25:34.180Z,-0.04
2023-01-22T13:28:03.062Z,-0.63
2023-01-22T13:30:31.000Z,-0.56
2023-01-22T13:33:06.092Z,-0.40
2023-01-22T13:35:35.664Z,-0.21
2023-01-22T13:38:02.280Z,0.14
2023-01-22T13:40:37.009Z,0.25
2023-01-22T13:43:16.401Z,0.30
2023-01-22T13:45:42.969Z,0.29
2023-01-22T13:48:15.896Z,0.29
2023-01-22T13:50:47.446Z,0.29
2023-01-22T13:53:24.342Z,0.31
2023-01-22T13:55:52.526Z,0.33
2023-01-22T13:58:47.353Z,0.37
2023-01-22T14:01:27.740Z,0.45
2023-01-22T14:03:59.625Z,0.47
2023-01-22T14:06:26.329Z,-0.16
2023-01-22T14:08:54.614Z,-0.96
2023-01-22T14:11:22.861Z,-0.25
2023-01-22T14:13:50.761Z,0.09
2023-01-22T14:16:18.062Z,0.24
2023-01-22T14:18:46.101Z,0.34
2023-01-22T14:21:12.948Z,0.32
2023-01-22T14:23:39.778Z,0.37
2023-01-22T14:26:08.248Z,0.32
2023-01-22T14:28:36.706Z,0.34
2023-01-22T14:31:03.458Z,0.35
2023-01-22T14:33:31.919Z,0.30
2023-01-22T14:35:58.921Z,0.34
2023-01-22T14:38:26.747Z,0.40
2023-01-22T14:40:54.034Z,0.41
2023-01-22T14:43:21.076Z,0.39
2023-01-22T14:45:49.231Z,0.37
2023-01-22T14:48:17.854Z,0.35
2023-01-22T14:50:44.519Z,0.35
2023-01-22T14:53:11.964Z,0.34
2023-01-22T14:55:38.911Z,0.36
2023-01-22T14:58:06.231Z,0.40
2023-01-22T15:00:33.147Z,0.41
2023-01-22T15:03:01.090Z,0.42
2023-01-22T15:05:28.082Z,0.39
2023-01-22T15:07:54.826Z,0.41
2023-01-22T15:10:21.555Z,0.40
2023-01-22T15:12:50.386Z,0.39
2023-01-22T15:15:22.866Z,0.41
2023-01-22T15:17:52.376Z,0.40
2023-01-22T15:20:21.335Z,0.42
2023-01-22T15:22:49.646Z,0.41
2023-01-22T15:25:16.318Z,0.41
2023-01-22T15:27:44.402Z,0.44
2023-01-22T15:30:12.058Z,0.45
2023-01-22T15:32:38.713Z,0.44
2023-01-22T15:35:06.128Z,0.43
2023-01-22T15:37:34.265Z,0.43
2023-01-22T15:40:01.008Z,0.44
2023-01-22T15:42:27.584Z,0.46
2023-01-22T15:44:54.138Z,0.45
2023-01-22T15:47:20.680Z,0.45
2023-01-22T15:49:47.295Z,0.46
2023-01-22T15:52:13.967Z,0.46
2023-01-22T15:54:41.868Z,0.47
2023-01-22T15:57:08.457Z,0.47
2023-01-22T15:59:37.853Z,0.47
2023-01-22T16:02:04.476Z,0.48
2023-01-22T16:04:31.139Z,0.48
2023-01-22T16:06:57.674Z,0.49
2023-01-22T16:09:24.309Z,0.49
2023-01-22T16:11:52.660Z,0.49
2023-01-22T16:14:22.368Z,0.49
2023-01-22T16:16:49.062Z,0.51
2023-01-22T16:19:15.616Z,0.52
2023-01-22T16:21:43.341Z,0.50
2023-01-22T16:24:09.946Z,0.51
2023-01-22T16:26:36.600Z,0.52
2023-01-22T16:29:05.553Z,0.51
2023-01-22T16:31:34.407Z,0.51
2023-01-22T16:34:07.549Z,0.55
2023-01-22T16:36:34.263Z,0.52
2023-01-22T16:39:01.573Z,0.52
2023-01-22T16:41:29.756Z,0.51
2023-01-22T16:43:58.522Z,0.53
2023-01-22T16:46:28.520Z,0.55
2023-01-22T16:48:57.268Z,0.54
2023-01-22T16:51:25.412Z,0.55
2023-01-22T16:53:52.567Z,0.55
2023-01-22T16:56:19.089Z,0.56
2023-01-22T16:58:45.762Z,0.55
2023-01-22T17:01:14.425Z,0.56
2023-01-22T17:03:43.224Z,0.55
2023-01-22T17:06:22.465Z,0.55
2023-01-22T17:08:49.241Z,0.57
2023-01-22T17:11:16.754Z,0.55
2023-01-22T17:13:43.921Z,0.57
2023-01-22T17:16:10.734Z,0.58
2023-01-22T17:18:37.309Z,0.58
2023-01-22T17:21:07.466Z,0.59
2023-01-22T17:23:34.051Z,0.56
2023-01-22T17:26:05.231Z,0.54
2023-01-22T17:28:31.880Z,0.55
2023-01-22T17:30:58.529Z,0.57
2023-01-22T17:33:25.101Z,0.57
2023-01-22T17:35:51.673Z,0.57
2023-01-22T17:38:19.503Z,0.56
2023-01-22T17:40:45.995Z,0.61
2023-01-22T17:43:12.495Z,0.58
2023-01-22T17:45:39.667Z,0.57
2023-01-22T17:48:06.595Z,0.57
2023-01-22T17:50:33.099Z,0.59
2023-01-22T17:52:59.664Z,0.59
2023-01-22T17:55:29.906Z,0.59
2023-01-22T17:57:56.838Z,0.59
2023-01-22T18:00:23.392Z,0.61
2023-01-22T18:02:50.225Z,0.62
2023-01-22T18:05:17.253Z,0.58
2023-01-22T18:07:43.945Z,0.42
2023-01-22T18:10:13.402Z,0.59
2023-01-22T18:12:42.198Z,0.60
2023-01-22T18:15:09.556Z,0.60
2023-01-22T18:17:36.267Z,0.62
2023-01-22T18:20:03.427Z,0.62
2023-01-22T18:22:30.367Z,0.66
2023-01-22T18:24:59.001Z,0.67
2023-01-22T18:27:25.862Z,0.66
2023-01-22T18:29:53.786Z,0.64
2023-01-22T18:32:21.597Z,0.62
2023-01-22T18:34:48.136Z,0.63
2023-01-22T18:37:14.687Z,0.66
2023-01-22T18:39:41.228Z,0.67
2023-01-22T18:42:07.780Z,0.66
2023-01-22T18:44:34.309Z,0.66
2023-01-22T18:47:02.272Z,0.66
2023-01-22T18:49:29.117Z,0.67
2023-01-22T18:51:59.179Z,0.68
2023-01-22T18:54:25.841Z,0.68
2023-01-22T18:56:52.395Z,0.69
2023-01-22T18:59:18.961Z,0.67
2023-01-22T19:01:51.361Z,0.66
2023-01-22T19:04:21.784Z,0.67
2023-01-22T19:06:52.598Z,0.67
2023-01-22T19:09:20.005Z,0.67
2023-01-22T19:11:48.606Z,0.68
2023-01-22T19:14:16.818Z,0.71
2023-01-22T19:16:44.881Z,0.72
2023-01-22T19:19:13.509Z,0.69
2023-01-22T19:21:46.798Z,0.69
2023-01-22T19:24:15.237Z,0.69
2023-01-22T19:26:43.390Z,0.69
2023-01-22T19:29:14.085Z,0.68
2023-01-22T19:31:42.719Z,0.70
2023-01-22T19:34:11.404Z,0.71
2023-01-22T19:36:38.970Z,0.70
2023-01-22T19:39:09.564Z,0.71
2023-01-22T19:41:37.532Z,0.71
2023-01-22T19:44:04.406Z,0.72
2023-01-22T19:46:31.231Z,0.70
2023-01-22T19:48:58.199Z,0.70
2023-01-22T19:51:26.861Z,0.71
2023-01-22T19:53:54.221Z,0.71
2023-01-22T19:56:24.176Z,0.69
2023-01-22T19:58:53.915Z,0.73
2023-01-22T20:01:20.928Z,0.70
2023-01-22T20:03:47.889Z,0.70
2023-01-22T20:06:16.111Z,0.72
2023-01-22T20:08:42.772Z,0.72
2023-01-22T20:11:11.109Z,0.71
2023-01-22T20:13:39.965Z,0.71
2023-01-22T20:16:15.621Z,0.73
2023-01-22T20:18:42.220Z,0.69
2023-01-22T20:21:09.672Z,0.70
2023-01-22T20:23:36.221Z,0.70
2023-01-22T20:26:07.226Z,0.56
2023-01-22T20:28:34.050Z,0.69
2023-01-22T20:31:05.470Z,0.70
2023-01-22T20:33:32.776Z,0.70
2023-01-22T20:36:01.222Z,0.70
2023-01-22T20:38:28.472Z,0.69
2023-01-22T20:40:55.076Z,0.70
2023-01-22T20:43:21.642Z,0.69
2023-01-22T20:45:58.700Z,0.68
2023-01-22T20:48:26.758Z,0.69
2023-01-22T20:50:53.338Z,0.70
2023-01-22T20:53:19.981Z,0.70
2023-01-22T20:55:46.814Z,0.68
2023-01-22T20:58:13.435Z,0.68
2023-01-22T21:00:40.109Z,0.68
2023-01-22T21:03:06.680Z,0.68
2023-01-22T21:05:35.304Z,0.68
2023-01-22T21:08:02.192Z,0.70
2023-01-22T21:10:28.697Z,0.69
2023-01-22T21:12:55.214Z,0.66
2023-01-22T21:15:21.945Z,0.65
2023-01-22T21:17:48.549Z,0.67
2023-01-22T21:20:15.269Z,0.67
2023-01-22T21:22:43.203Z,0.68
2023-01-22T21:25:09.855Z,0.64
2023-01-22T21:27:36.348Z,0.63
2023-01-22T21:30:03.900Z,0.63
2023-01-22T21:32:30.608Z,0.65
2023-01-22T21:34:57.463Z,0.63
2023-01-22T21:37:24.048Z,0.64
2023-01-22T21:39:51.898Z,0.62
2023-01-22T21:42:37.289Z,0.64
2023-01-22T21:45:23.066Z,0.61
2023-01-22T21:47:49.593Z,0.59
2023-01-22T21:50:16.373Z,0.59
2023-01-22T21:52:45.158Z,0.60
2023-01-22T21:55:14.824Z,0.56
2023-01-22T21:57:41.676Z,0.56
2023-01-22T22:00:09.566Z,0.59
2023-01-22T22:02:36.130Z,0.61
2023-01-22T22:05:02.739Z,0.58
2023-01-22T22:07:29.277Z,0.15
2023-01-22T22:09:55.771Z,0.45
2023-01-22T22:12:23.672Z,-1.01
2023-01-22T22:14:50.314Z,-0.46
2023-01-22T22:17:16.843Z,0.23
2023-01-22T22:19:43.363Z,0.41
2023-01-22T22:22:09.855Z,0.43
2023-01-22T22:24:36.419Z,0.47
2023-01-22T22:27:02.948Z,0.45
2023-01-22T22:29:30.853Z,0.42
2023-01-22T22:31:57.519Z,0.47
2023-01-22T22:34:24.035Z,-0.18
2023-01-22T22:36:50.535Z,-3.03
2023-01-22T22:39:17.852Z,-0.27
2023-01-22T22:41:44.824Z,0.18
2023-01-22T22:44:11.626Z,0.29
2023-01-22T22:46:39.964Z,0.32
2023-01-22T22:49:06.717Z,0.33
2023-01-22T22:51:35.371Z,0.32
2023-01-22T22:54:05.172Z,0.30
2023-01-22T22:56:31.824Z,0.32
2023-01-22T22:58:59.295Z,0.32
2023-01-22T23:01:27.273Z,0.32
2023-01-22T23:03:55.328Z,0.27
2023-01-22T23:06:23.893Z,0.30
2023-01-22T23:08:55.185Z,0.28
2023-01-22T23:11:23.794Z,0.30
2023-01-22T23:13:50.949Z,0.28
2023-01-22T23:16:19.489Z,0.31
2023-01-22T23:18:47.256Z,0.32
2023-01-22T23:21:17.518Z,0.27
2023-01-22T23:23:45.270Z,0.31
2023-01-22T23:26:14.103Z,0.23
2023-01-22T23:28:40.685Z,0.29
2023-01-22T23:31:09.690Z,0.23
2023-01-22T23:33:37.162Z,0.21
2023-01-22T23:36:05.887Z,0.22
2023-01-22T23:38:34.023Z,0.20
2023-01-22T23:41:03.336Z,0.21
2023-01-22T23:43:30.239Z,0.24
2023-01-22T23:45:56.857Z,0.21
2023-01-22T23:48:23.732Z,0.21
2023-01-22T23:50:53.860Z,0.19
2023-01-22T23:53:22.067Z,0.17
2023-01-22T23:55:50.008Z,0.16
2023-01-22T23:58:16.559Z,0.18
